Time;durP1;ratioP1;P1;durP2;ratioP2;P2;SDS_P1;SDS_P2;PMS_P1;PMS_P2;Temp;Humidity;BMP_temperature;BMP_pressure;BME280_temperature;BME280_humidity;BME280_pressure;Samples;Min_cycle;Max_cycle;Signal;HPM_P1;HPM_P2
2023/03/25 00:03:49;;;;;;;6.90;4.97;;;11.90;99.90;;;;;;10194708;29;20294;-92
2023/03/25 00:08:52;;;;;;;7.20;5.07;;;12.80;99.90;;;;;;10210146;29;20234;-91
2023/03/25 00:13:55;;;;;;;11.50;6.32;;;13.50;99.90;;;;;;10211095;29;20258;-91
2023/03/25 00:19:00;;;;;;;5.80;4.22;;;13.10;99.90;;;;;;10228108;29;20230;-91
2023/03/25 00:24:03;;;;;;;5.97;5.23;;;13.40;99.90;;;;;;10207667;29;20648;-91
2023/03/25 00:29:06;;;;;;;7.03;4.88;;;13.30;99.90;;;;;;10217769;29;20277;-92
2023/03/25 00:34:13;;;;;;;10.38;6.78;;;12.70;99.90;;;;;;10217417;29;20263;-91
2023/03/25 00:39:15;;;;;;;9.87;8.33;;;12.10;99.90;;;;;;10208960;29;20650;-91
2023/03/25 00:44:18;;;;;;;9.87;6.83;;;11.70;99.90;;;;;;10210144;29;20242;-90
2023/03/25 00:49:23;;;;;;;7.75;6.82;;;11.60;99.90;;;;;;10193186;29;20242;-91
2023/03/25 00:54:26;;;;;;;6.07;5.10;;;11.70;99.90;;;;;;10209898;29;20310;-91
2023/03/25 00:59:29;;;;;;;9.60;6.77;;;11.60;99.90;;;;;;10191900;29;20267;-90
2023/03/25 01:04:36;;;;;;;12.47;7.53;;;11.40;99.90;;;;;;10223490;29;20211;-91
2023/03/25 01:09:45;;;;;;;15.63;7.30;;;10.50;99.90;;;;;;10192985;29;20302;-92
2023/03/25 01:14:48;;;;;;;15.57;8.97;;;10.00;99.90;;;;;;10176268;29;20251;-91
2023/03/25 01:19:50;;;;;;;11.80;8.07;;;9.50;99.90;;;;;;10190662;29;20285;-91
2023/03/25 01:24:53;;;;;;;9.93;7.00;;;9.20;99.90;;;;;;10191091;29;20253;-91
2023/03/25 01:29:56;;;;;;;9.53;6.33;;;;;;;;;;10190962;29;20637;-92
2023/03/25 01:34:59;;;;;;;13.63;8.57;;;8.80;99.90;;;;;;10194726;29;20268;-91
2023/03/25 01:40:04;;;;;;;9.67;6.67;;;8.60;99.90;;;;;;10246162;29;20262;-91
2023/03/25 01:45:28;;;;;;;9.03;7.83;;;8.30;99.90;;;;;;10230540;28;20239;-92
2023/03/25 01:50:33;;;;;;;17.83;9.60;;;8.10;99.90;;;;;;10190866;29;20232;-91
2023/03/25 01:55:37;;;;;;;10.63;8.17;;;7.90;99.90;;;;;;10207611;29;20282;-91
2023/03/25 02:00:44;;;;;;;11.67;7.47;;;7.80;99.90;;;;;;10205454;29;20243;-91
2023/03/25 02:06:02;;;;;;;9.73;6.30;;;7.80;99.90;;;;;;10207210;29;20246;-92
2023/03/25 02:11:06;;;;;;;10.03;6.67;;;7.90;99.90;;;;;;10206308;29;20740;-91
2023/03/25 02:16:33;;;;;;;12.20;7.53;;;7.90;99.90;;;;;;10206729;29;20843;-90
2023/03/25 02:22:06;;;;;;;8.27;6.23;;;7.70;99.90;;;;;;10210873;29;20232;-92
2023/03/25 02:27:26;;;;;;;9.20;5.90;;;7.60;99.90;;;;;;10190031;29;20273;-91
2023/03/25 02:32:47;;;;;;;12.50;8.17;;;7.60;99.90;;;;;;10174109;29;20258;-91
2023/03/25 02:38:05;;;;;;;7.33;5.90;;;7.50;99.90;;;;;;10205480;29;20654;-91
2023/03/25 02:43:26;;;;;;;9.37;6.60;;;7.30;99.90;;;;;;10203181;29;20207;-91
2023/03/25 02:48:38;;;;;;;8.40;5.03;;;7.10;99.90;;;;;;10203899;29;20622;-91
2023/03/25 02:53:45;;;;;;;8.90;6.93;;;7.10;99.90;;;;;;10203966;29;20282;-91
2023/03/25 02:58:49;;;;;;;10.57;6.13;;;7.00;99.90;;;;;;10195574;29;20230;-91
2023/03/25 03:03:53;;;;;;;8.70;6.40;;;6.90;99.90;;;;;;10231616;29;20281;-90
2023/03/25 03:09:18;;;;;;;9.10;6.33;;;7.30;99.90;;;;;;10251780;29;20312;-91
2023/03/25 03:14:36;;;;;;;7.67;5.07;;;8.00;99.90;;;;;;10253253;29;20291;-91
2023/03/25 03:19:50;;;;;;;9.63;6.90;;;9.20;99.90;;;;;;10194719;29;20300;-92
2023/03/25 03:25:21;;;;;;;13.37;6.70;;;8.50;99.90;;;;;;10189325;29;20246;-92
2023/03/25 03:30:47;;;;;;;12.97;7.60;;;8.30;99.90;;;;;;10212579;29;20758;-92
2023/03/25 03:35:56;;;;;;;11.90;7.07;;;7.90;99.90;;;;;;10212613;29;20269;-91
2023/03/25 03:41:05;;;;;;;12.60;6.73;;;7.60;99.90;;;;;;10226955;29;20276;-91
2023/03/25 03:46:25;;;;;;;9.70;5.90;;;7.60;99.90;;;;;;10212160;29;20293;-92
2023/03/25 03:51:39;;;;;;;8.27;6.10;;;8.10;99.90;;;;;;10206865;29;20279;-92
2023/03/25 03:56:52;;;;;;;10.80;7.33;;;8.50;99.90;;;;;;10212901;29;20231;-92
2023/03/25 04:01:58;;;;;;;13.93;7.17;;;8.00;99.90;;;;;;10213147;29;20247;-90
2023/03/25 04:07:21;;;;;;;7.53;4.70;;;7.30;99.90;;;;;;10211229;29;20274;-91
2023/03/25 04:12:31;;;;;;;7.10;5.27;;;7.20;99.90;;;;;;10225752;29;20270;-91
2023/03/25 04:17:34;;;;;;;10.40;7.10;;;7.00;99.90;;;;;;10197245;29;20264;-91
2023/03/25 04:22:37;;;;;;;10.43;6.73;;;7.00;99.90;;;;;;10217476;29;20238;-91
2023/03/25 04:27:40;;;;;;;17.03;9.93;;;6.90;99.90;;;;;;10193505;29;20239;-91
2023/03/25 04:32:45;;;;;;;20.87;11.43;;;6.80;99.90;;;;;;10197633;29;20297;-91
2023/03/25 04:37:48;;;;;;;18.70;9.67;;;6.60;99.90;;;;;;10212183;29;20322;-90
2023/03/25 04:42:52;;;;;;;21.13;11.17;;;6.70;99.90;;;;;;10209580;29;20267;-91
2023/03/25 04:47:54;;;;;;;9.03;6.53;;;6.40;99.90;;;;;;10193399;29;20313;-91
2023/03/25 04:52:59;;;;;;;9.00;6.47;;;6.40;99.90;;;;;;10209963;29;20770;-92
2023/03/25 04:58:01;;;;;;;9.97;7.57;;;6.50;99.90;;;;;;10208783;29;20230;-91
2023/03/25 05:03:04;;;;;;;10.97;6.40;;;6.70;99.90;;;;;;10212256;29;20238;-91
2023/03/25 05:08:07;;;;;;;7.60;5.47;;;6.90;99.90;;;;;;10209416;29;20292;-91
2023/03/25 05:13:10;;;;;;;8.37;5.80;;;6.90;99.90;;;;;;10208695;29;20296;-90
2023/03/25 05:18:14;;;;;;;10.53;7.10;;;7.00;99.90;;;;;;10206973;29;20231;-92
2023/03/25 05:23:17;;;;;;;9.63;6.17;;;7.00;99.90;;;;;;10208230;29;20309;-91
2023/03/25 05:28:20;;;;;;;7.73;5.83;;;7.10;99.90;;;;;;10207951;29;20269;-91
2023/03/25 05:33:22;;;;;;;10.33;6.03;;;7.20;99.90;;;;;;10209725;29;20670;-91
2023/03/25 05:38:25;;;;;;;8.70;5.20;;;7.20;99.90;;;;;;10207776;29;20277;-90
2023/03/25 05:43:28;;;;;;;9.17;5.93;;;7.30;99.90;;;;;;10208280;29;20232;-91
2023/03/25 05:48:31;;;;;;;6.30;4.73;;;7.50;99.90;;;;;;10212375;29;20239;-90
2023/03/25 05:53:34;;;;;;;6.67;4.47;;;7.80;99.90;;;;;;10214697;29;20733;-92
2023/03/25 05:58:38;;;;;;;6.03;3.97;;;8.30;99.90;;;;;;10206984;29;20307;-92
2023/03/25 06:03:42;;;;;;;6.30;3.63;;;9.20;99.90;;;;;;10190006;29;20231;-91
2023/03/25 06:08:49;;;;;;;3.70;2.87;;;10.30;99.90;;;;;;10197863;29;20309;-91
2023/03/25 06:13:51;;;;;;;4.53;3.20;;;;;;;;;;10220874;29;21017;-91
2023/03/25 06:19:01;;;;;;;4.03;3.63;;;13.00;99.90;;;;;;10207214;29;20659;-92
2023/03/25 06:24:07;;;;;;;8.17;4.27;;;13.00;99.90;;;;;;10196039;29;20677;-90
2023/03/25 06:29:10;;;;;;;6.10;4.53;;;12.70;99.90;;;;;;10204537;29;20267;-91
2023/03/25 06:34:15;;;;;;;6.67;4.17;;;13.00;99.90;;;;;;10203617;29;20263;-91
2023/03/25 06:39:18;;;;;;;8.80;4.87;;;13.00;99.90;;;;;;10204951;29;20318;-90
2023/03/25 06:44:24;;;;;;;4.40;3.30;;;13.00;99.90;;;;;;10187027;29;20238;-91
2023/03/25 06:49:39;;;;;;;6.50;4.80;;;12.80;99.90;;;;;;10202928;29;20766;-93
2023/03/25 06:54:42;;;;;;;5.37;4.20;;;13.00;99.90;;;;;;10203552;29;20254;-90
2023/03/25 06:59:46;;;;;;;8.60;3.87;;;13.10;99.90;;;;;;10205607;29;20648;-91
2023/03/25 07:04:48;;;;;;;5.43;4.43;;;13.50;99.90;;;;;;10202206;29;20306;-92
2023/03/25 07:09:53;;;;;;;6.23;4.87;;;13.60;99.90;;;;;;10175415;29;20294;-92
2023/03/25 07:14:56;;;;;;;5.57;3.47;;;13.80;99.90;;;;;;10205170;29;20255;-92
2023/03/25 07:20:00;;;;;;;5.90;4.53;;;;;;;;;;10187009;29;20674;-91
2023/03/25 07:25:03;;;;;;;3.60;2.93;;;14.00;99.90;;;;;;10204933;29;20243;-92
2023/03/25 07:30:06;;;;;;;4.60;3.17;;;14.30;99.90;;;;;;10205157;29;20295;-92
2023/03/25 07:35:09;;;;;;;5.47;4.20;;;13.90;99.90;;;;;;10206792;29;20258;-91
2023/03/25 07:40:12;;;;;;;3.67;3.17;;;14.40;99.90;;;;;;10205591;29;20297;-92
2023/03/25 07:45:14;;;;;;;7.10;3.83;;;14.40;99.90;;;;;;10203696;29;20250;-91
2023/03/25 07:50:21;;;;;;;4.57;3.50;;;15.10;99.90;;;;;;10206060;29;20270;-93
2023/03/25 07:55:26;;;;;;;6.93;3.27;;;15.20;99.90;;;;;;10204583;29;20262;-90
2023/03/25 08:00:29;;;;;;;5.33;3.00;;;15.00;99.90;;;;;;10211740;29;20605;-91
2023/03/25 08:05:32;;;;;;;5.03;3.10;;;14.60;99.90;;;;;;10207307;29;20235;-91
2023/03/25 08:10:34;;;;;;;4.33;3.10;;;14.60;99.90;;;;;;10209804;29;20227;-89
2023/03/25 08:15:37;;;;;;;5.00;3.10;;;14.70;99.90;;;;;;10199302;29;20860;-90
2023/03/25 08:20:40;;;;;;;2.93;2.13;;;15.10;99.90;;;;;;10209848;29;20227;-90
2023/03/25 08:25:44;;;;;;;4.07;2.67;;;;;;;;;;10209549;29;20679;-89
2023/03/25 08:30:48;;;;;;;5.53;3.03;;;16.40;99.90;;;;;;10210945;29;20301;-90
2023/03/25 08:35:52;;;;;;;2.73;2.40;;;17.00;99.90;;;;;;10223418;29;20253;-90
2023/03/25 08:40:55;;;;;;;4.10;2.57;;;;;;;;;;10203271;29;20306;-90
2023/03/25 08:45:58;;;;;;;2.47;1.73;;;18.10;99.90;;;;;;10171648;29;20239;-89
2023/03/25 08:51:01;;;;;;;2.53;2.20;;;18.40;99.90;;;;;;10173239;29;20263;-90
2023/03/25 08:56:04;;;;;;;2.80;2.27;;;17.80;99.90;;;;;;10208148;29;20254;-90
2023/03/25 09:01:06;;;;;;;2.28;2.08;;;17.90;99.90;;;;;;10208019;29;20286;-92
2023/03/25 09:06:09;;;;;;;3.37;2.10;;;18.40;99.90;;;;;;10210661;29;20620;-92
2023/03/25 09:11:14;;;;;;;2.27;1.93;;;18.60;99.90;;;;;;10212021;29;20305;-91
2023/03/25 09:16:23;;;;;;;2.17;1.17;;;19.00;99.90;;;;;;10209255;29;20266;-89
2023/03/25 09:21:26;;;;;;;2.77;1.53;;;;;;;;;;10210086;29;20622;-91
2023/03/25 09:26:29;;;;;;;1.37;0.97;;;;;;;;;;10208969;29;20302;-90
2023/03/25 09:31:32;;;;;;;3.67;2.00;;;;;;;;;;10209972;29;20242;-89
2023/03/25 09:36:36;;;;;;;5.33;1.50;;;;;;;;;;10209515;29;20274;-90
2023/03/25 09:41:50;;;;;;;4.27;1.53;;;;;;;;;;10208825;29;20259;-90
2023/03/25 09:46:53;;;;;;;2.20;1.53;;;;;;;;;;10208288;29;20242;-91
2023/03/25 09:51:57;;;;;;;2.93;1.40;;;;;;;;;;10208044;29;20767;-92
2023/03/25 09:57:02;;;;;;;1.63;0.87;;;;;;;;;;10209337;29;20275;-91
2023/03/25 10:02:11;;;;;;;1.83;1.23;;;;;;;;;;10206222;29;20227;-88
2023/03/25 10:07:14;;;;;;;2.13;1.70;;;;;;;;;;10205791;29;20294;-91
2023/03/25 10:12:23;;;;;;;2.10;1.77;;;;;;;;;;10205885;29;20990;-91
2023/03/25 10:17:32;;;;;;;2.33;1.00;;;;;;;;;;10201919;29;20313;-91
2023/03/25 10:22:49;;;;;;;3.67;1.27;;;;;;;;;;10206219;29;20234;-90
2023/03/25 10:27:52;;;;;;;4.00;1.57;;;;;;;;;;10206862;29;20234;-90
2023/03/25 10:32:56;;;;;;;4.97;2.10;;;;;;;;;;10205475;29;20234;-90
2023/03/25 10:38:06;;;;;;;3.33;1.27;;;;;;;;;;10201684;29;20258;-90
2023/03/25 10:43:25;;;;;;;2.97;1.70;;;;;;;;;;10205072;29;20226;-91
2023/03/25 10:48:29;;;;;;;4.30;1.67;;;;;;;;;;10202252;29;20644;-93
2023/03/25 10:53:32;;;;;;;4.67;1.50;;;;;;;;;;10206703;29;20258;-90
2023/03/25 10:58:36;;;;;;;4.20;1.87;;;;;;;;;;10205260;29;20996;-89
2023/03/25 11:03:40;;;;;;;3.60;1.50;;;;;;;;;;10205699;29;20285;-90
2023/03/25 11:08:56;;;;;;;2.57;1.40;;;;;;;;;;10203585;29;20235;-91
2023/03/25 11:13:59;;;;;;;1.10;0.83;;;;;;;;;;10205175;29;20250;-91
2023/03/25 11:19:03;;;;;;;4.50;1.30;;;;;;;;;;10201530;29;20243;-91
2023/03/25 11:24:07;;;;;;;3.17;1.47;;;;;;;;;;10192328;29;20251;-92
2023/03/25 11:29:15;;;;;;;1.40;0.77;;;;;;;;;;10192137;29;20772;-92
2023/03/25 11:34:22;;;;;;;1.20;0.67;;;14.20;99.90;;;;;;10191971;29;20357;-92
2023/03/25 11:39:33;;;;;;;3.70;1.13;;;14.00;99.90;;;;;;10211791;29;20741;-91
2023/03/25 11:44:36;;;;;;;2.90;0.90;;;13.00;99.90;;;;;;10213452;29;20732;-92
2023/03/25 11:49:40;;;;;;;2.10;1.10;;;12.70;99.90;;;;;;10211965;29;20238;-92
2023/03/25 11:54:44;;;;;;;2.53;2.33;;;11.90;99.90;;;;;;10211452;29;20266;-91
2023/03/25 11:59:48;;;;;;;1.47;0.90;;;11.20;99.90;;;;;;10212649;29;20241;-93
2023/03/25 12:05:01;;;;;;;3.10;1.33;;;11.30;99.90;;;;;;10210277;29;20294;-90
2023/03/25 12:10:05;;;;;;;1.60;1.00;;;12.30;99.90;;;;;;10209750;29;20302;-90
2023/03/25 12:15:44;;;;;;;2.97;1.67;;;13.20;99.90;;;;;;10211112;29;20670;-90
2023/03/25 12:20:53;;;;;;;3.20;0.97;;;13.60;99.90;;;;;;10209187;29;20239;-91
2023/03/25 12:26:09;;;;;;;0.97;0.87;;;13.60;99.90;;;;;;10208919;29;20250;-88
2023/03/25 12:31:35;;;;;;;2.20;1.17;;;13.80;99.90;;;;;;10194828;29;20303;-91
2023/03/25 12:37:00;;;;;;;3.07;0.90;;;14.80;99.90;;;;;;10206679;29;20290;-91
2023/03/25 12:42:17;;;;;;;1.50;0.93;;;16.00;99.90;;;;;;10183395;29;20238;-90
2023/03/25 12:47:27;;;;;;;1.27;0.70;;;17.00;99.90;;;;;;10211310;29;20293;-92
2023/03/25 12:52:36;;;;;;;3.90;1.00;;;17.60;99.90;;;;;;10211011;29;20243;-91
2023/03/25 12:57:41;;;;;;;1.57;1.30;;;17.80;99.40;;;;;;10210800;29;20717;-91
2023/03/25 13:03:11;;;;;;;2.40;1.13;;;15.70;81.40;;;;;;10208217;29;20239;-90
2023/03/25 13:08:23;;;;;;;1.77;0.80;;;14.00;92.70;;;;;;10211327;29;20651;-84
2023/03/25 13:13:28;;;;;;;2.17;1.13;;;14.10;99.40;;;;;;10246688;29;20239;-92
2023/03/25 13:18:52;;;;;;;2.10;0.80;;;15.50;95.80;;;;;;10248885;28;20261;-93
2023/03/25 13:24:00;;;;;;;2.10;0.80;;;16.70;91.80;;;;;;10248649;29;20237;-91
2023/03/25 13:29:09;;;;;;;0.93;0.47;;;17.40;86.30;;;;;;10248115;28;20300;-91
2023/03/25 13:34:25;;;;;;;3.63;0.70;;;17.60;84.40;;;;;;10247055;29;20654;-93
2023/03/25 13:39:46;;;;;;;2.80;1.13;;;17.80;81.30;;;;;;10247689;29;20286;-93
2023/03/25 13:44:53;;;;;;;7.73;0.77;;;18.10;80.10;;;;;;10247448;29;20292;-92
2023/03/25 13:50:13;;;;;;;3.50;0.60;;;18.30;79.30;;;;;;10248288;28;20210;-91
2023/03/25 13:55:21;;;;;;;3.40;0.60;;;17.90;81.80;;;;;;10247899;29;20328;-91
2023/03/25 14:01:02;;;;;;;1.23;0.60;;;17.60;81.40;;;;;;10247473;29;20238;-92
2023/03/25 14:06:13;;;;;;;4.77;0.60;;;17.80;85.20;;;;;;10125858;29;20292;-91
2023/03/25 14:11:16;;;;;;;1.67;0.70;;;17.80;85.00;;;;;;10123686;29;20251;-91
2023/03/25 14:16:26;;;;;;;0.73;0.30;;;17.60;86.30;;;;;;10108031;29;20267;-90
2023/03/25 14:21:40;;;;;;;0.60;0.40;;;17.50;88.80;;;;;;10123552;29;20239;-92
2023/03/25 14:26:48;;;;;;;1.40;0.80;;;17.10;91.20;;;;;;10124332;29;20252;-93
2023/03/25 14:32:20;;;;;;;2.63;1.30;;;17.20;85.70;;;;;;10123802;29;20244;-92
2023/03/25 14:37:27;;;;;;;1.53;0.80;;;17.20;92.90;;;;;;10104756;29;20665;-91
2023/03/25 14:42:58;;;;;;;1.90;1.40;;;16.80;90.20;;;;;;10181386;29;20247;-84
2023/03/25 14:48:09;;;;;;;6.17;1.50;;;16.80;82.50;;;;;;10037081;29;20289;-88
2023/03/25 14:53:27;;;;;;;4.23;1.23;;;16.70;92.00;;;;;;10050443;29;20692;-87
2023/03/25 14:58:30;;;;;;;4.00;2.47;;;15.80;96.70;;;;;;10047730;29;20264;-88
2023/03/25 15:03:36;;;;;;;3.00;1.87;;;13.80;95.40;;;;;;10053479;29;20266;-88
2023/03/25 15:08:43;;;;;;;5.70;2.57;;;12.80;99.90;;;;;;10052446;29;20281;-88
2023/03/25 15:13:52;;;;;;;5.43;2.90;;;12.50;99.90;;;;;;10053503;29;20237;-88
2023/03/25 15:18:54;;;;;;;3.50;2.87;;;12.20;99.90;;;;;;10053138;29;20306;-87
2023/03/25 15:24:05;;;;;;;3.83;2.00;;;12.00;99.90;;;;;;10130583;29;20664;-88
2023/03/25 15:29:47;;;;;;;5.27;2.57;;;11.70;99.90;;;;;;10194553;29;20295;-88
2023/03/25 15:35:35;;;;;;;5.17;2.37;;;11.60;99.90;;;;;;10198951;29;20293;-88
2023/03/25 15:41:16;;;;;;;4.03;2.40;;;11.40;99.90;;;;;;10213065;29;20258;-87
2023/03/25 15:46:48;;;;;;;6.23;3.10;;;11.20;99.90;;;;;;10210756;29;20246;-88
2023/03/25 15:52:09;;;;;;;7.03;3.00;;;11.00;99.90;;;;;;10098474;29;20260;-87
2023/03/25 15:57:19;;;;;;;3.33;2.23;;;11.00;99.90;;;;;;10090514;29;20983;-88
2023/03/25 16:02:39;;;;;;;5.23;3.50;;;11.20;99.90;;;;;;10091215;29;20273;-88
2023/03/25 16:07:43;;;;;;;4.20;2.80;;;12.00;99.90;;;;;;10086998;29;20284;-88
2023/03/25 16:12:47;;;;;;;5.80;3.57;;;12.70;99.90;;;;;;9749169;29;9999611;-87
2023/03/25 16:17:51;;;;;;;5.40;3.50;;;12.90;99.90;;;;;;10085193;29;20809;-87
2023/03/25 16:22:56;;;;;;;7.53;4.60;;;12.40;99.90;;;;;;10072751;29;20253;-88
2023/03/25 16:28:01;;;;;;;7.00;3.97;;;12.60;99.90;;;;;;10164336;29;20693;-87
2023/03/25 16:33:12;;;;;;;5.23;3.50;;;12.30;99.90;;;;;;10188202;29;20298;-88
2023/03/25 16:38:19;;;;;;;6.50;4.00;;;12.10;99.90;;;;;;10169568;29;20326;-87
2023/03/25 16:43:23;;;;;;;9.10;4.43;;;12.10;99.90;;;;;;10170528;29;20302;-88
2023/03/25 16:48:30;;;;;;;13.17;5.63;;;12.00;99.90;;;;;;10169808;29;20605;-87
2023/03/25 16:53:38;;;;;;;10.27;5.90;;;11.70;99.90;;;;;;10202144;29;20833;-88
2023/03/25 16:58:58;;;;;;;6.00;4.47;;;11.50;99.90;;;;;;10207473;29;20755;-88
2023/03/25 17:04:10;;;;;;;6.00;4.30;;;11.40;99.90;;;;;;10205311;29;20373;-87
2023/03/25 17:09:19;;;;;;;5.50;2.80;;;11.40;99.90;;;;;;10204862;29;20642;-88
2023/03/25 17:14:28;;;;;;;2.53;1.90;;;11.30;99.90;;;;;;10204473;29;20629;-87
2023/03/25 17:19:31;;;;;;;4.07;2.13;;;11.60;99.90;;;;;;10203822;29;20908;-88
2023/03/25 17:24:42;;;;;;;5.47;2.50;;;13.00;99.90;;;;;;10204841;29;20262;-87
2023/03/25 17:29:59;;;;;;;6.83;2.80;;;14.10;99.90;;;;;;10166401;29;20689;-88
2023/03/25 17:35:22;;;;;;;3.13;2.10;;;14.50;99.90;;;;;;10203050;29;20203;-88
2023/03/25 17:40:27;;;;;;;3.03;2.27;;;14.80;99.90;;;;;;10204483;29;20263;-89
2023/03/25 17:45:30;;;;;;;2.65;2.00;;;14.10;99.90;;;;;;10207970;29;20689;-88
2023/03/25 17:50:32;;;;;;;3.57;2.43;;;13.60;99.90;;;;;;10206330;29;20693;-88
2023/03/25 17:55:36;;;;;;;3.07;2.43;;;12.40;99.90;;;;;;10208850;29;20254;-88
2023/03/25 18:00:39;;;;;;;3.60;2.67;;;12.20;99.90;;;;;;10209512;29;20274;-87
2023/03/25 18:05:42;;;;;;;2.50;1.80;;;12.10;99.90;;;;;;10208109;29;20281;-88
2023/03/25 18:10:45;;;;;;;6.30;3.87;;;12.70;99.90;;;;;;10206206;29;20246;-88
2023/03/25 18:15:47;;;;;;;5.07;1.97;;;12.80;99.90;;;;;;10207456;29;20246;-88
2023/03/25 18:20:51;;;;;;;5.20;2.73;;;13.80;99.90;;;;;;10204658;29;20289;-88
2023/03/25 18:25:55;;;;;;;8.37;4.40;;;12.50;99.90;;;;;;10206539;29;20238;-87
2023/03/25 18:30:58;;;;;;;4.33;2.63;;;11.60;99.90;;;;;;10204356;29;20238;-88
2023/03/25 18:36:01;;;;;;;5.23;3.63;;;11.40;99.90;;;;;;10203550;29;20265;-89
2023/03/25 18:41:04;;;;;;;5.83;3.83;;;11.70;99.90;;;;;;10202041;29;20262;-89
2023/03/25 18:46:11;;;;;;;12.00;7.03;;;11.10;99.90;;;;;;10206460;29;20277;-88
2023/03/25 18:51:16;;;;;;;18.50;12.30;;;10.40;99.90;;;;;;10201457;29;20263;-88
2023/03/25 18:56:19;;;;;;;17.80;8.67;;;9.80;99.90;;;;;;10201438;29;20259;-88
2023/03/25 19:01:24;;;;;;;4.83;1.70;;;;;;;;;;10202617;29;20234;-88
2023/03/25 19:06:29;;;;;;;2.53;1.40;;;16.40;99.90;;;;;;10204213;29;20309;-88
2023/03/25 19:11:34;;;;;;;4.82;2.70;;;16.40;99.90;;;;;;10207203;29;20611;-88
2023/03/25 19:16:37;;;;;;;5.67;1.60;;;17.70;99.90;;;;;;10205681;29;20915;-89
2023/03/25 19:21:41;;;;;;;6.03;2.97;;;17.80;99.90;;;;;;10206331;29;20594;-90
2023/03/25 19:26:43;;;;;;;6.20;3.70;;;16.70;99.90;;;;;;10206001;29;20243;-89
2023/03/25 19:31:46;;;;;;;7.20;4.20;;;;;;;;;;10203412;29;20234;-89
2023/03/25 19:36:49;;;;;;;7.27;4.70;;;;;;;;;;10204989;29;20269;-89
2023/03/25 19:41:52;;;;;;;8.80;5.80;;;;;;;;;;10204676;29;20234;-89
2023/03/25 19:46:54;;;;;;;10.67;6.50;;;9.10;99.90;;;;;;10203760;29;20633;-89
2023/03/25 19:51:57;;;;;;;11.27;7.37;;;8.40;99.90;;;;;;10209950;29;20233;-89
2023/03/25 19:57:00;;;;;;;11.80;6.80;;;;;;;;;;10219738;28;20262;-89
2023/03/25 20:02:03;;;;;;;24.50;15.40;;;7.20;99.90;;;;;;10209024;29;20239;-89
2023/03/25 20:07:05;;;;;;;17.73;10.43;;;6.80;99.90;;;;;;10206837;29;20782;-89
2023/03/25 20:12:08;;;;;;;17.33;10.13;;;6.80;99.90;;;;;;10210974;29;20247;-90
2023/03/25 20:17:11;;;;;;;17.27;9.63;;;6.90;99.90;;;;;;10209574;29;20722;-89
2023/03/25 20:22:16;;;;;;;16.83;10.47;;;6.70;99.90;;;;;;10206418;29;20748;-88
2023/03/25 20:27:21;;;;;;;17.50;11.73;;;6.70;99.90;;;;;;10189383;29;20250;-89
2023/03/25 20:32:24;;;;;;;15.70;10.33;;;6.50;99.90;;;;;;10200659;29;20631;-89
2023/03/25 20:37:43;;;;;;;14.30;9.83;;;6.20;99.90;;;;;;10208600;29;20258;-89
2023/03/25 20:42:47;;;;;;;15.73;10.53;;;6.00;99.90;;;;;;10208548;29;20258;-88
2023/03/25 20:47:50;;;;;;;12.07;7.83;;;6.00;99.90;;;;;;10208142;29;20286;-89
2023/03/25 20:52:53;;;;;;;7.27;4.47;;;6.40;99.90;;;;;;10190070;29;20262;-88
2023/03/25 20:57:56;;;;;;;8.00;3.67;;;7.80;99.90;;;;;;10222369;28;20919;-90
2023/03/25 21:02:58;;;;;;;12.60;5.17;;;9.30;99.90;;;;;;10210090;29;20237;-90
2023/03/25 21:08:01;;;;;;;6.77;3.23;;;9.90;99.90;;;;;;10209695;29;20262;-88
2023/03/25 21:13:04;;;;;;;6.80;3.87;;;11.20;99.90;;;;;;10206869;29;20647;-88
2023/03/25 21:18:07;;;;;;;9.27;4.27;;;11.70;99.90;;;;;;10207105;29;20258;-88
2023/03/25 21:23:10;;;;;;;5.33;3.57;;;12.30;99.90;;;;;;10199490;29;20246;-89
2023/03/25 21:28:13;;;;;;;4.83;3.37;;;12.10;99.90;;;;;;10203183;29;20293;-89
2023/03/25 21:33:16;;;;;;;4.53;3.20;;;;;;;;;;10202905;29;20680;-89
2023/03/25 21:38:18;;;;;;;3.63;2.87;;;13.40;99.90;;;;;;10205963;29;20673;-89
2023/03/25 21:43:32;;;;;;;5.90;3.23;;;13.10;99.90;;;;;;10203398;29;20222;-89
2023/03/25 21:48:38;;;;;;;4.97;3.00;;;12.40;99.90;;;;;;10202727;29;20227;-88
2023/03/25 21:53:44;;;;;;;6.80;3.50;;;12.20;99.90;;;;;;10196928;29;20250;-89
2023/03/25 21:58:47;;;;;;;4.73;3.70;;;11.60;99.90;;;;;;10204685;29;20251;-89
2023/03/25 22:03:54;;;;;;;5.50;3.90;;;11.30;99.90;;;;;;10200997;29;20238;-88
2023/03/25 22:09:04;;;;;;;4.50;3.23;;;11.20;99.90;;;;;;10206781;29;20298;-91
2023/03/25 22:14:12;;;;;;;3.70;2.93;;;11.10;99.90;;;;;;10218816;29;20227;-91
2023/03/25 22:19:15;;;;;;;6.20;4.33;;;12.20;99.90;;;;;;10180635;29;20834;-90
2023/03/25 22:24:18;;;;;;;5.63;3.63;;;12.00;99.90;;;;;;10204990;29;20238;-90
2023/03/25 22:29:20;;;;;;;6.10;4.00;;;12.10;99.90;;;;;;10204690;29;20301;-89
2023/03/25 22:34:23;;;;;;;6.67;3.87;;;12.20;99.90;;;;;;10205707;29;20273;-90
2023/03/25 22:39:27;;;;;;;4.13;3.00;;;12.00;99.90;;;;;;10204765;29;20928;-90
2023/03/25 22:44:30;;;;;;;5.33;3.73;;;12.20;99.90;;;;;;9860992;29;10000268;-88
2023/03/25 22:49:32;;;;;;;4.63;2.90;;;11.90;99.90;;;;;;10198229;29;20726;-89
2023/03/25 22:54:35;;;;;;;6.47;3.70;;;11.50;99.90;;;;;;10201515;29;20620;-89
2023/03/25 22:59:38;;;;;;;4.93;3.30;;;11.30;99.90;;;;;;10200166;29;20758;-88
2023/03/25 23:04:40;;;;;;;5.57;4.13;;;11.40;99.90;;;;;;10202661;29;20258;-88
2023/03/25 23:09:43;;;;;;;7.33;3.77;;;11.20;99.90;;;;;;10201593;29;20301;-89
2023/03/25 23:14:53;;;;;;;4.00;2.63;;;11.80;99.90;;;;;;10203045;29;20235;-89
2023/03/25 23:19:55;;;;;;;5.43;3.07;;;11.70;99.90;;;;;;10196166;29;20254;-89
2023/03/25 23:24:58;;;;;;;5.20;2.40;;;11.90;99.90;;;;;;10204490;29;20231;-89
2023/03/25 23:30:03;;;;;;;2.33;1.90;;;12.40;99.90;;;;;;10210074;29;20304;-89
2023/03/25 23:35:06;;;;;;;2.28;1.08;;;;;;;;;;10210554;29;20247;-89
2023/03/25 23:40:11;;;;;;;1.53;1.10;;;14.80;99.90;;;;;;10209977;29;20765;-89
2023/03/25 23:45:14;;;;;;;2.47;1.88;;;15.00;99.90;;;;;;10207665;29;20662;-89
2023/03/25 23:50:18;;;;;;;6.70;2.50;;;15.50;99.90;;;;;;10210127;29;20252;-89
2023/03/25 23:55:22;;;;;;;4.87;3.30;;;15.40;99.90;;;;;;10208503;29;20318;-89
